sensor_id;sensor_type;location;lat;lon;timestamp;P1;durP1;ratioP1;P2;durP2;ratioP2
73023;SDS011;61199;47.526;8.538;2023-06-22T00:01:17;19.00;;;9.93;;
73023;SDS011;61199;47.526;8.538;2023-06-22T00:03:45;30.77;;;9.47;;
73023;SDS011;61199;47.526;8.538;2023-06-22T00:06:11;26.73;;;10.40;;
73023;SDS011;61199;47.526;8.538;2023-06-22T00:08:38;18.80;;;9.23;;
73023;SDS011;61199;47.526;8.538;2023-06-22T00:11:04;21.83;;;9.23;;
73023;SDS011;61199;47.526;8.538;2023-06-22T00:13:30;21.63;;;9.93;;
73023;SDS011;61199;47.526;8.538;2023-06-22T00:15:57;24.53;;;9.90;;
73023;SDS011;61199;47.526;8.538;2023-06-22T00:18:23;18.70;;;8.53;;
73023;SDS011;61199;47.526;8.538;2023-06-22T00:20:54;29.37;;;8.77;;
73023;SDS011;61199;47.526;8.538;2023-06-22T00:23:25;22.13;;;8.83;;
73023;SDS011;61199;47.526;8.538;2023-06-22T00:25:51;34.03;;;10.83;;
73023;SDS011;61199;47.526;8.538;2023-06-22T00:28:18;20.63;;;9.17;;
73023;SDS011;61199;47.526;8.538;2023-06-22T00:30:45;23.17;;;9.40;;
73023;SDS011;61199;47.526;8.538;2023-06-22T00:33:12;18.47;;;8.40;;
73023;SDS011;61199;47.526;8.538;2023-06-22T00:35:38;22.93;;;9.23;;
73023;SDS011;61199;47.526;8.538;2023-06-22T00:38:07;29.40;;;10.53;;
73023;SDS011;61199;47.526;8.538;2023-06-22T00:40:34;19.73;;;8.80;;
73023;SDS011;61199;47.526;8.538;2023-06-22T00:43:01;22.10;;;9.57;;
73023;SDS011;61199;47.526;8.538;2023-06-22T00:45:27;26.63;;;9.80;;
73023;SDS011;61199;47.526;8.538;2023-06-22T00:47:54;21.57;;;9.53;;
73023;SDS011;61199;47.526;8.538;2023-06-22T00:50:24;19.40;;;9.10;;
73023;SDS011;61199;47.526;8.538;2023-06-22T00:52:54;20.53;;;10.00;;
73023;SDS011;61199;47.526;8.538;2023-06-22T00:55:23;17.53;;;9.00;;
73023;SDS011;61199;47.526;8.538;2023-06-22T00:57:50;27.90;;;9.17;;
73023;SDS011;61199;47.526;8.538;2023-06-22T01:00:16;27.17;;;9.90;;
73023;SDS011;61199;47.526;8.538;2023-06-22T01:02:45;21.27;;;9.93;;
73023;SDS011;61199;47.526;8.538;2023-06-22T01:05:13;25.93;;;10.60;;
73023;SDS011;61199;47.526;8.538;2023-06-22T01:10:39;26.53;;;10.70;;
73023;SDS011;61199;47.526;8.538;2023-06-22T01:18:28;22.73;;;9.37;;
73023;SDS011;61199;47.526;8.538;2023-06-22T01:20:57;27.23;;;8.90;;
73023;SDS011;61199;47.526;8.538;2023-06-22T01:29:08;24.20;;;9.07;;
73023;SDS011;61199;47.526;8.538;2023-06-22T01:31:40;18.40;;;9.27;;
73023;SDS011;61199;47.526;8.538;2023-06-22T01:34:10;21.37;;;8.40;;
73023;SDS011;61199;47.526;8.538;2023-06-22T01:36:38;23.00;;;9.80;;
73023;SDS011;61199;47.526;8.538;2023-06-22T01:39:06;16.17;;;8.60;;
73023;SDS011;61199;47.526;8.538;2023-06-22T01:41:35;25.37;;;9.87;;
73023;SDS011;61199;47.526;8.538;2023-06-22T01:44:07;21.63;;;9.70;;
73023;SDS011;61199;47.526;8.538;2023-06-22T01:46:35;21.57;;;8.90;;
73023;SDS011;61199;47.526;8.538;2023-06-22T01:49:03;16.30;;;8.50;;
73023;SDS011;61199;47.526;8.538;2023-06-22T01:51:30;21.77;;;8.67;;
73023;SDS011;61199;47.526;8.538;2023-06-22T01:53:57;21.27;;;8.80;;
73023;SDS011;61199;47.526;8.538;2023-06-22T01:56:24;26.70;;;8.73;;
73023;SDS011;61199;47.526;8.538;2023-06-22T01:59:00;19.27;;;8.90;;
73023;SDS011;61199;47.526;8.538;2023-06-22T02:01:57;25.97;;;9.70;;
73023;SDS011;61199;47.526;8.538;2023-06-22T02:04:32;22.30;;;8.50;;
73023;SDS011;61199;47.526;8.538;2023-06-22T02:07:02;30.33;;;9.53;;
73023;SDS011;61199;47.526;8.538;2023-06-22T02:09:35;22.97;;;9.33;;
73023;SDS011;61199;47.526;8.538;2023-06-22T02:12:04;23.13;;;8.80;;
73023;SDS011;61199;47.526;8.538;2023-06-22T02:14:33;21.23;;;9.70;;
73023;SDS011;61199;47.526;8.538;2023-06-22T02:17:00;21.43;;;9.10;;
73023;SDS011;61199;47.526;8.538;2023-06-22T02:19:27;25.43;;;9.90;;
73023;SDS011;61199;47.526;8.538;2023-06-22T02:21:53;21.40;;;9.03;;
73023;SDS011;61199;47.526;8.538;2023-06-22T02:24:20;23.80;;;9.47;;
73023;SDS011;61199;47.526;8.538;2023-06-22T02:26:49;20.57;;;8.57;;
73023;SDS011;61199;47.526;8.538;2023-06-22T02:29:15;16.63;;;8.37;;
73023;SDS011;61199;47.526;8.538;2023-06-22T02:31:42;19.83;;;9.17;;
73023;SDS011;61199;47.526;8.538;2023-06-22T02:34:08;18.03;;;8.70;;
73023;SDS011;61199;47.526;8.538;2023-06-22T02:36:35;17.30;;;9.60;;
73023;SDS011;61199;47.526;8.538;2023-06-22T02:39:01;25.97;;;9.87;;
73023;SDS011;61199;47.526;8.538;2023-06-22T02:41:29;19.20;;;8.90;;
73023;SDS011;61199;47.526;8.538;2023-06-22T02:43:55;20.83;;;9.67;;
73023;SDS011;61199;47.526;8.538;2023-06-22T02:46:22;17.97;;;8.50;;
73023;SDS011;61199;47.526;8.538;2023-06-22T02:48:48;20.17;;;9.40;;
73023;SDS011;61199;47.526;8.538;2023-06-22T02:51:15;16.67;;;9.90;;
73023;SDS011;61199;47.526;8.538;2023-06-22T02:53:41;19.63;;;10.07;;
73023;SDS011;61199;47.526;8.538;2023-06-22T02:56:10;20.00;;;9.47;;
73023;SDS011;61199;47.526;8.538;2023-06-22T02:58:37;21.10;;;9.73;;
73023;SDS011;61199;47.526;8.538;2023-06-22T03:01:05;21.50;;;9.60;;
73023;SDS011;61199;47.526;8.538;2023-06-22T03:03:32;30.07;;;10.53;;
73023;SDS011;61199;47.526;8.538;2023-06-22T03:05:58;16.77;;;9.80;;
73023;SDS011;61199;47.526;8.538;2023-06-22T03:08:27;20.40;;;10.40;;
73023;SDS011;61199;47.526;8.538;2023-06-22T03:10:54;31.40;;;10.13;;
73023;SDS011;61199;47.526;8.538;2023-06-22T03:13:20;16.93;;;9.20;;
73023;SDS011;61199;47.526;8.538;2023-06-22T03:15:47;23.20;;;9.50;;
73023;SDS011;61199;47.526;8.538;2023-06-22T03:18:13;28.07;;;10.07;;
73023;SDS011;61199;47.526;8.538;2023-06-22T03:20:40;27.10;;;9.67;;
73023;SDS011;61199;47.526;8.538;2023-06-22T03:23:06;19.53;;;9.70;;
73023;SDS011;61199;47.526;8.538;2023-06-22T03:25:32;23.67;;;9.43;;
73023;SDS011;61199;47.526;8.538;2023-06-22T03:27:59;22.73;;;10.20;;
73023;SDS011;61199;47.526;8.538;2023-06-22T03:30:26;25.83;;;9.57;;
73023;SDS011;61199;47.526;8.538;2023-06-22T03:32:53;24.13;;;9.80;;
73023;SDS011;61199;47.526;8.538;2023-06-22T03:35:20;20.67;;;9.50;;
73023;SDS011;61199;47.526;8.538;2023-06-22T03:37:46;19.40;;;9.80;;
73023;SDS011;61199;47.526;8.538;2023-06-22T03:40:13;22.87;;;10.43;;
73023;SDS011;61199;47.526;8.538;2023-06-22T03:42:39;19.33;;;9.30;;
73023;SDS011;61199;47.526;8.538;2023-06-22T03:45:06;21.60;;;10.50;;
73023;SDS011;61199;47.526;8.538;2023-06-22T03:47:33;23.93;;;10.03;;
73023;SDS011;61199;47.526;8.538;2023-06-22T03:50:00;19.57;;;10.33;;
73023;SDS011;61199;47.526;8.538;2023-06-22T03:52:26;18.67;;;9.47;;
73023;SDS011;61199;47.526;8.538;2023-06-22T03:54:52;28.70;;;10.70;;
73023;SDS011;61199;47.526;8.538;2023-06-22T03:57:19;22.50;;;9.03;;
73023;SDS011;61199;47.526;8.538;2023-06-22T03:59:45;21.37;;;10.40;;
73023;SDS011;61199;47.526;8.538;2023-06-22T04:02:12;26.23;;;10.40;;
73023;SDS011;61199;47.526;8.538;2023-06-22T04:04:38;24.60;;;9.47;;
73023;SDS011;61199;47.526;8.538;2023-06-22T04:07:05;16.30;;;9.27;;
73023;SDS011;61199;47.526;8.538;2023-06-22T04:09:32;25.10;;;10.50;;
73023;SDS011;61199;47.526;8.538;2023-06-22T04:11:58;21.23;;;10.73;;
73023;SDS011;61199;47.526;8.538;2023-06-22T04:14:25;29.97;;;10.67;;
73023;SDS011;61199;47.526;8.538;2023-06-22T04:16:51;20.40;;;9.50;;
73023;SDS011;61199;47.526;8.538;2023-06-22T04:19:18;20.70;;;10.70;;
73023;SDS011;61199;47.526;8.538;2023-06-22T04:21:44;19.70;;;10.50;;
73023;SDS011;61199;47.526;8.538;2023-06-22T04:24:11;44.00;;;11.00;;
73023;SDS011;61199;47.526;8.538;2023-06-22T04:26:38;23.83;;;9.40;;
73023;SDS011;61199;47.526;8.538;2023-06-22T04:29:07;25.20;;;11.57;;
73023;SDS011;61199;47.526;8.538;2023-06-22T04:31:35;33.90;;;11.23;;
73023;SDS011;61199;47.526;8.538;2023-06-22T04:34:04;20.73;;;10.00;;
73023;SDS011;61199;47.526;8.538;2023-06-22T04:36:35;20.07;;;9.40;;
73023;SDS011;61199;47.526;8.538;2023-06-22T04:39:07;21.37;;;9.67;;
73023;SDS011;61199;47.526;8.538;2023-06-22T04:41:39;17.60;;;10.17;;
73023;SDS011;61199;47.526;8.538;2023-06-22T04:44:10;33.37;;;11.97;;
73023;SDS011;61199;47.526;8.538;2023-06-22T04:46:50;32.27;;;11.40;;
73023;SDS011;61199;47.526;8.538;2023-06-22T04:49:26;31.07;;;11.90;;
73023;SDS011;61199;47.526;8.538;2023-06-22T04:52:00;26.47;;;11.27;;
73023;SDS011;61199;47.526;8.538;2023-06-22T04:54:29;30.17;;;10.70;;
73023;SDS011;61199;47.526;8.538;2023-06-22T04:56:55;24.23;;;9.87;;
73023;SDS011;61199;47.526;8.538;2023-06-22T04:59:26;19.93;;;9.57;;
73023;SDS011;61199;47.526;8.538;2023-06-22T05:01:57;28.70;;;10.90;;
73023;SDS011;61199;47.526;8.538;2023-06-22T05:04:24;20.80;;;9.87;;
73023;SDS011;61199;47.526;8.538;2023-06-22T05:06:52;18.07;;;9.50;;
73023;SDS011;61199;47.526;8.538;2023-06-22T05:09:20;23.87;;;10.40;;
73023;SDS011;61199;47.526;8.538;2023-06-22T05:11:47;23.27;;;10.60;;
73023;SDS011;61199;47.526;8.538;2023-06-22T05:14:13;30.13;;;10.67;;
73023;SDS011;61199;47.526;8.538;2023-06-22T05:16:41;19.37;;;9.87;;
73023;SDS011;61199;47.526;8.538;2023-06-22T05:19:08;23.17;;;9.37;;
73023;SDS011;61199;47.526;8.538;2023-06-22T05:21:35;22.67;;;10.37;;
73023;SDS011;61199;47.526;8.538;2023-06-22T05:24:01;24.30;;;10.80;;
73023;SDS011;61199;47.526;8.538;2023-06-22T05:26:32;29.03;;;10.97;;
73023;SDS011;61199;47.526;8.538;2023-06-22T05:29:00;26.40;;;10.07;;
73023;SDS011;61199;47.526;8.538;2023-06-22T05:31:28;30.37;;;12.07;;
73023;SDS011;61199;47.526;8.538;2023-06-22T05:33:55;40.40;;;11.80;;
73023;SDS011;61199;47.526;8.538;2023-06-22T05:36:22;19.50;;;9.50;;
73023;SDS011;61199;47.526;8.538;2023-06-22T05:38:52;26.27;;;9.93;;
73023;SDS011;61199;47.526;8.538;2023-06-22T05:41:19;23.90;;;9.87;;
73023;SDS011;61199;47.526;8.538;2023-06-22T05:43:45;30.93;;;11.07;;
73023;SDS011;61199;47.526;8.538;2023-06-22T05:46:12;24.70;;;9.43;;
73023;SDS011;61199;47.526;8.538;2023-06-22T05:48:38;24.67;;;9.70;;
73023;SDS011;61199;47.526;8.538;2023-06-22T05:51:05;22.17;;;9.60;;
73023;SDS011;61199;47.526;8.538;2023-06-22T05:53:31;32.73;;;10.23;;
73023;SDS011;61199;47.526;8.538;2023-06-22T05:55:58;26.40;;;9.50;;
73023;SDS011;61199;47.526;8.538;2023-06-22T05:58:24;29.10;;;10.67;;
73023;SDS011;61199;47.526;8.538;2023-06-22T06:00:50;29.50;;;10.80;;
73023;SDS011;61199;47.526;8.538;2023-06-22T06:03:17;19.07;;;9.57;;
73023;SDS011;61199;47.526;8.538;2023-06-22T06:05:43;21.93;;;9.30;;
73023;SDS011;61199;47.526;8.538;2023-06-22T06:08:11;22.90;;;10.10;;
73023;SDS011;61199;47.526;8.538;2023-06-22T06:10:38;23.57;;;9.87;;
73023;SDS011;61199;47.526;8.538;2023-06-22T06:13:05;20.77;;;9.50;;
73023;SDS011;61199;47.526;8.538;2023-06-22T06:15:32;30.63;;;10.63;;
73023;SDS011;61199;47.526;8.538;2023-06-22T06:17:58;27.53;;;9.80;;
73023;SDS011;61199;47.526;8.538;2023-06-22T06:20:25;26.83;;;11.40;;
73023;SDS011;61199;47.526;8.538;2023-06-22T06:22:56;30.87;;;10.37;;
73023;SDS011;61199;47.526;8.538;2023-06-22T06:25:22;21.10;;;10.73;;
73023;SDS011;61199;47.526;8.538;2023-06-22T06:27:50;22.40;;;11.10;;
73023;SDS011;61199;47.526;8.538;2023-06-22T06:30:18;24.07;;;10.90;;
73023;SDS011;61199;47.526;8.538;2023-06-22T06:32:45;32.83;;;10.90;;
73023;SDS011;61199;47.526;8.538;2023-06-22T06:35:12;28.30;;;12.10;;
73023;SDS011;61199;47.526;8.538;2023-06-22T06:37:42;21.67;;;10.50;;
73023;SDS011;61199;47.526;8.538;2023-06-22T06:40:10;26.30;;;9.93;;
73023;SDS011;61199;47.526;8.538;2023-06-22T06:42:38;25.20;;;10.37;;
73023;SDS011;61199;47.526;8.538;2023-06-22T06:45:08;26.13;;;10.40;;
73023;SDS011;61199;47.526;8.538;2023-06-22T06:47:35;22.90;;;10.73;;
73023;SDS011;61199;47.526;8.538;2023-06-22T06:50:02;21.60;;;9.97;;
73023;SDS011;61199;47.526;8.538;2023-06-22T06:52:30;20.77;;;10.07;;
73023;SDS011;61199;47.526;8.538;2023-06-22T06:54:56;21.40;;;9.40;;
73023;SDS011;61199;47.526;8.538;2023-06-22T06:57:23;32.57;;;11.07;;
73023;SDS011;61199;47.526;8.538;2023-06-22T06:59:49;28.10;;;11.60;;
73023;SDS011;61199;47.526;8.538;2023-06-22T07:02:15;25.23;;;10.90;;
73023;SDS011;61199;47.526;8.538;2023-06-22T07:04:42;26.03;;;10.77;;
73023;SDS011;61199;47.526;8.538;2023-06-22T07:07:08;26.83;;;11.70;;
73023;SDS011;61199;47.526;8.538;2023-06-22T07:09:35;24.40;;;11.70;;
73023;SDS011;61199;47.526;8.538;2023-06-22T07:12:01;25.97;;;10.93;;
73023;SDS011;61199;47.526;8.538;2023-06-22T07:14:27;27.53;;;12.07;;
73023;SDS011;61199;47.526;8.538;2023-06-22T07:16:54;27.27;;;11.00;;
73023;SDS011;61199;47.526;8.538;2023-06-22T07:19:24;29.70;;;11.23;;
73023;SDS011;61199;47.526;8.538;2023-06-22T07:21:55;33.20;;;11.60;;
73023;SDS011;61199;47.526;8.538;2023-06-22T07:24:21;32.60;;;12.53;;
73023;SDS011;61199;47.526;8.538;2023-06-22T07:26:49;29.43;;;12.30;;
73023;SDS011;61199;47.526;8.538;2023-06-22T07:29:16;36.30;;;11.53;;
73023;SDS011;61199;47.526;8.538;2023-06-22T07:31:44;27.40;;;11.83;;
73023;SDS011;61199;47.526;8.538;2023-06-22T07:34:11;26.37;;;11.30;;
73023;SDS011;61199;47.526;8.538;2023-06-22T07:36:37;32.90;;;11.27;;
73023;SDS011;61199;47.526;8.538;2023-06-22T07:39:04;21.30;;;10.83;;
73023;SDS011;61199;47.526;8.538;2023-06-22T07:41:31;21.33;;;11.23;;
73023;SDS011;61199;47.526;8.538;2023-06-22T07:43:58;24.40;;;10.10;;
73023;SDS011;61199;47.526;8.538;2023-06-22T07:46:25;26.00;;;11.07;;
73023;SDS011;61199;47.526;8.538;2023-06-22T07:48:51;33.60;;;10.43;;
73023;SDS011;61199;47.526;8.538;2023-06-22T07:51:21;24.13;;;11.10;;
73023;SDS011;61199;47.526;8.538;2023-06-22T07:53:48;34.13;;;11.13;;
73023;SDS011;61199;47.526;8.538;2023-06-22T07:56:14;29.33;;;11.07;;
73023;SDS011;61199;47.526;8.538;2023-06-22T07:58:45;29.10;;;12.27;;
73023;SDS011;61199;47.526;8.538;2023-06-22T08:01:13;22.03;;;11.30;;
73023;SDS011;61199;47.526;8.538;2023-06-22T08:03:43;35.63;;;12.10;;
73023;SDS011;61199;47.526;8.538;2023-06-22T08:06:09;24.60;;;11.77;;
73023;SDS011;61199;47.526;8.538;2023-06-22T08:08:36;28.30;;;11.17;;
73023;SDS011;61199;47.526;8.538;2023-06-22T08:11:02;34.23;;;11.73;;
73023;SDS011;61199;47.526;8.538;2023-06-22T08:13:29;21.67;;;11.00;;
73023;SDS011;61199;47.526;8.538;2023-06-22T08:15:56;23.57;;;9.80;;
73023;SDS011;61199;47.526;8.538;2023-06-22T08:18:22;22.53;;;10.70;;
73023;SDS011;61199;47.526;8.538;2023-06-22T08:20:48;18.87;;;9.80;;
73023;SDS011;61199;47.526;8.538;2023-06-22T08:23:15;19.57;;;10.50;;
73023;SDS011;61199;47.526;8.538;2023-06-22T08:25:42;37.57;;;10.23;;
73023;SDS011;61199;47.526;8.538;2023-06-22T08:28:08;30.30;;;10.00;;
73023;SDS011;61199;47.526;8.538;2023-06-22T08:30:35;22.30;;;10.60;;
73023;SDS011;61199;47.526;8.538;2023-06-22T08:33:02;20.00;;;10.40;;
73023;SDS011;61199;47.526;8.538;2023-06-22T08:35:28;22.63;;;10.37;;
73023;SDS011;61199;47.526;8.538;2023-06-22T08:37:55;21.60;;;11.57;;
73023;SDS011;61199;47.526;8.538;2023-06-22T08:40:23;25.50;;;11.43;;
73023;SDS011;61199;47.526;8.538;2023-06-22T08:42:50;28.93;;;11.93;;
73023;SDS011;61199;47.526;8.538;2023-06-22T08:45:16;24.70;;;11.27;;
73023;SDS011;61199;47.526;8.538;2023-06-22T08:47:43;29.93;;;11.53;;
73023;SDS011;61199;47.526;8.538;2023-06-22T08:50:10;22.57;;;10.17;;
73023;SDS011;61199;47.526;8.538;2023-06-22T08:52:38;31.97;;;12.80;;
73023;SDS011;61199;47.526;8.538;2023-06-22T08:55:07;34.63;;;12.50;;
73023;SDS011;61199;47.526;8.538;2023-06-22T08:57:35;28.33;;;11.80;;
73023;SDS011;61199;47.526;8.538;2023-06-22T09:00:05;33.20;;;11.50;;
73023;SDS011;61199;47.526;8.538;2023-06-22T09:02:37;25.57;;;11.37;;
73023;SDS011;61199;47.526;8.538;2023-06-22T09:05:06;32.00;;;12.57;;
73023;SDS011;61199;47.526;8.538;2023-06-22T09:07:33;35.47;;;12.13;;
73023;SDS011;61199;47.526;8.538;2023-06-22T09:10:00;28.73;;;10.57;;
73023;SDS011;61199;47.526;8.538;2023-06-22T09:12:29;26.17;;;12.00;;
73023;SDS011;61199;47.526;8.538;2023-06-22T09:14:56;29.83;;;12.40;;
73023;SDS011;61199;47.526;8.538;2023-06-22T09:17:23;47.80;;;12.43;;
73023;SDS011;61199;47.526;8.538;2023-06-22T09:19:49;35.03;;;13.47;;
73023;SDS011;61199;47.526;8.538;2023-06-22T09:22:16;33.03;;;13.00;;
73023;SDS011;61199;47.526;8.538;2023-06-22T09:24:42;24.07;;;12.00;;
73023;SDS011;61199;47.526;8.538;2023-06-22T09:27:09;25.40;;;12.10;;
73023;SDS011;61199;47.526;8.538;2023-06-22T09:29:35;28.43;;;12.70;;
73023;SDS011;61199;47.526;8.538;2023-06-22T09:32:02;27.70;;;12.20;;
73023;SDS011;61199;47.526;8.538;2023-06-22T09:34:28;27.40;;;12.23;;
73023;SDS011;61199;47.526;8.538;2023-06-22T09:36:57;34.40;;;13.67;;
73023;SDS011;61199;47.526;8.538;2023-06-22T09:39:26;28.63;;;14.30;;
73023;SDS011;61199;47.526;8.538;2023-06-22T09:41:53;30.37;;;11.03;;
73023;SDS011;61199;47.526;8.538;2023-06-22T09:44:19;29.27;;;13.40;;
73023;SDS011;61199;47.526;8.538;2023-06-22T09:46:45;28.60;;;13.80;;
73023;SDS011;61199;47.526;8.538;2023-06-22T09:49:12;25.20;;;13.40;;
73023;SDS011;61199;47.526;8.538;2023-06-22T09:51:38;25.67;;;12.50;;
73023;SDS011;61199;47.526;8.538;2023-06-22T09:54:05;29.23;;;12.30;;
73023;SDS011;61199;47.526;8.538;2023-06-22T09:56:31;28.47;;;12.23;;
73023;SDS011;61199;47.526;8.538;2023-06-22T09:58:58;27.03;;;12.30;;
73023;SDS011;61199;47.526;8.538;2023-06-22T10:01:42;20.00;;;10.17;;
73023;SDS011;61199;47.526;8.538;2023-06-22T10:04:09;26.70;;;11.10;;
73023;SDS011;61199;47.526;8.538;2023-06-22T10:06:35;22.20;;;10.70;;
73023;SDS011;61199;47.526;8.538;2023-06-22T10:09:02;26.10;;;10.40;;
73023;SDS011;61199;47.526;8.538;2023-06-22T10:11:28;23.03;;;9.70;;
73023;SDS011;61199;47.526;8.538;2023-06-22T10:13:56;25.87;;;9.90;;
73023;SDS011;61199;47.526;8.538;2023-06-22T10:16:24;26.37;;;8.70;;
73023;SDS011;61199;47.526;8.538;2023-06-22T10:18:56;23.03;;;9.53;;
73023;SDS011;61199;47.526;8.538;2023-06-22T10:21:22;26.30;;;10.13;;
73023;SDS011;61199;47.526;8.538;2023-06-22T10:23:49;25.63;;;9.33;;
73023;SDS011;61199;47.526;8.538;2023-06-22T10:26:15;18.63;;;8.93;;
73023;SDS011;61199;47.526;8.538;2023-06-22T10:28:41;27.63;;;10.70;;
73023;SDS011;61199;47.526;8.538;2023-06-22T10:31:08;27.73;;;10.90;;
73023;SDS011;61199;47.526;8.538;2023-06-22T10:33:35;20.80;;;9.20;;
73023;SDS011;61199;47.526;8.538;2023-06-22T10:36:01;24.30;;;10.07;;
73023;SDS011;61199;47.526;8.538;2023-06-22T10:38:27;18.97;;;9.13;;
73023;SDS011;61199;47.526;8.538;2023-06-22T10:40:54;20.90;;;8.93;;
73023;SDS011;61199;47.526;8.538;2023-06-22T10:43:23;18.73;;;8.80;;
73023;SDS011;61199;47.526;8.538;2023-06-22T10:45:50;20.00;;;10.70;;
73023;SDS011;61199;47.526;8.538;2023-06-22T10:48:16;20.23;;;9.20;;
73023;SDS011;61199;47.526;8.538;2023-06-22T10:50:42;23.20;;;10.00;;
73023;SDS011;61199;47.526;8.538;2023-06-22T10:53:09;22.57;;;9.50;;
73023;SDS011;61199;47.526;8.538;2023-06-22T10:55:35;24.53;;;8.83;;
73023;SDS011;61199;47.526;8.538;2023-06-22T10:58:21;22.20;;;8.80;;
73023;SDS011;61199;47.526;8.538;2023-06-22T11:00:48;23.93;;;9.30;;
73023;SDS011;61199;47.526;8.538;2023-06-22T11:03:14;28.20;;;8.57;;
73023;SDS011;61199;47.526;8.538;2023-06-22T11:05:41;34.93;;;10.40;;
73023;SDS011;61199;47.526;8.538;2023-06-22T11:08:07;28.37;;;10.53;;
73023;SDS011;61199;47.526;8.538;2023-06-22T11:10:34;26.07;;;10.60;;
73023;SDS011;61199;47.526;8.538;2023-06-22T11:13:00;20.13;;;9.23;;
73023;SDS011;61199;47.526;8.538;2023-06-22T11:15:28;20.10;;;9.70;;
73023;SDS011;61199;47.526;8.538;2023-06-22T11:17:55;23.23;;;11.00;;
73023;SDS011;61199;47.526;8.538;2023-06-22T11:20:21;28.43;;;8.77;;
73023;SDS011;61199;47.526;8.538;2023-06-22T11:22:48;30.37;;;9.40;;
73023;SDS011;61199;47.526;8.538;2023-06-22T11:25:14;29.33;;;9.13;;
73023;SDS011;61199;47.526;8.538;2023-06-22T11:27:40;21.40;;;10.20;;
73023;SDS011;61199;47.526;8.538;2023-06-22T11:30:07;27.83;;;10.00;;
73023;SDS011;61199;47.526;8.538;2023-06-22T11:32:34;26.70;;;10.93;;
73023;SDS011;61199;47.526;8.538;2023-06-22T11:35:01;27.33;;;9.90;;
73023;SDS011;61199;47.526;8.538;2023-06-22T11:37:27;20.43;;;9.50;;
73023;SDS011;61199;47.526;8.538;2023-06-22T11:39:54;23.10;;;9.10;;
73023;SDS011;61199;47.526;8.538;2023-06-22T11:42:32;19.77;;;8.80;;
73023;SDS011;61199;47.526;8.538;2023-06-22T11:44:58;28.93;;;10.40;;
73023;SDS011;61199;47.526;8.538;2023-06-22T11:47:25;23.60;;;10.50;;
73023;SDS011;61199;47.526;8.538;2023-06-22T11:49:51;21.30;;;9.57;;
73023;SDS011;61199;47.526;8.538;2023-06-22T11:52:17;21.17;;;9.50;;
73023;SDS011;61199;47.526;8.538;2023-06-22T11:54:45;25.80;;;9.97;;
73023;SDS011;61199;47.526;8.538;2023-06-22T11:57:11;22.27;;;10.10;;
73023;SDS011;61199;47.526;8.538;2023-06-22T11:59:38;23.80;;;10.87;;
73023;SDS011;61199;47.526;8.538;2023-06-22T12:02:04;26.63;;;10.83;;
73023;SDS011;61199;47.526;8.538;2023-06-22T12:04:33;31.73;;;11.40;;
73023;SDS011;61199;47.526;8.538;2023-06-22T12:06:59;23.57;;;11.07;;
73023;SDS011;61199;47.526;8.538;2023-06-22T12:09:26;27.50;;;10.73;;
73023;SDS011;61199;47.526;8.538;2023-06-22T12:11:52;30.93;;;11.73;;
73023;SDS011;61199;47.526;8.538;2023-06-22T12:14:19;19.03;;;10.70;;
73023;SDS011;61199;47.526;8.538;2023-06-22T12:16:45;27.93;;;10.23;;
73023;SDS011;61199;47.526;8.538;2023-06-22T12:19:11;26.00;;;10.93;;
73023;SDS011;61199;47.526;8.538;2023-06-22T12:21:38;21.67;;;11.33;;
73023;SDS011;61199;47.526;8.538;2023-06-22T12:24:06;27.03;;;11.80;;
73023;SDS011;61199;47.526;8.538;2023-06-22T12:26:33;28.60;;;11.90;;
73023;SDS011;61199;47.526;8.538;2023-06-22T12:28:59;29.20;;;12.07;;
73023;SDS011;61199;47.526;8.538;2023-06-22T12:31:25;24.50;;;10.30;;
73023;SDS011;61199;47.526;8.538;2023-06-22T12:33:52;23.30;;;11.27;;
73023;SDS011;61199;47.526;8.538;2023-06-22T12:36:18;29.30;;;11.17;;
73023;SDS011;61199;47.526;8.538;2023-06-22T12:38:45;32.93;;;11.40;;
73023;SDS011;61199;47.526;8.538;2023-06-22T12:41:11;29.33;;;10.40;;
73023;SDS011;61199;47.526;8.538;2023-06-22T12:43:37;25.97;;;11.30;;
73023;SDS011;61199;47.526;8.538;2023-06-22T12:46:04;28.93;;;11.23;;
73023;SDS011;61199;47.526;8.538;2023-06-22T12:48:30;32.17;;;11.33;;
73023;SDS011;61199;47.526;8.538;2023-06-22T12:50:56;19.73;;;11.07;;
73023;SDS011;61199;47.526;8.538;2023-06-22T12:53:23;29.97;;;11.20;;
73023;SDS011;61199;47.526;8.538;2023-06-22T12:55:50;24.77;;;10.93;;
73023;SDS011;61199;47.526;8.538;2023-06-22T12:58:16;19.23;;;10.53;;
73023;SDS011;61199;47.526;8.538;2023-06-22T13:00:43;25.40;;;11.33;;
73023;SDS011;61199;47.526;8.538;2023-06-22T13:03:09;22.77;;;10.30;;
73023;SDS011;61199;47.526;8.538;2023-06-22T13:05:36;26.67;;;11.47;;
73023;SDS011;61199;47.526;8.538;2023-06-22T13:08:02;25.20;;;10.53;;
73023;SDS011;61199;47.526;8.538;2023-06-22T13:10:29;22.03;;;9.53;;
73023;SDS011;61199;47.526;8.538;2023-06-22T13:12:56;29.20;;;10.80;;
73023;SDS011;61199;47.526;8.538;2023-06-22T13:15:30;22.87;;;9.77;;
73023;SDS011;61199;47.526;8.538;2023-06-22T13:17:57;34.17;;;11.60;;
73023;SDS011;61199;47.526;8.538;2023-06-22T13:20:23;21.43;;;9.23;;
73023;SDS011;61199;47.526;8.538;2023-06-22T13:22:50;26.17;;;9.03;;
73023;SDS011;61199;47.526;8.538;2023-06-22T13:25:16;29.57;;;10.63;;
73023;SDS011;61199;47.526;8.538;2023-06-22T13:27:45;25.87;;;11.03;;
73023;SDS011;61199;47.526;8.538;2023-06-22T13:30:12;24.07;;;9.40;;
73023;SDS011;61199;47.526;8.538;2023-06-22T13:32:40;31.23;;;8.90;;
73023;SDS011;61199;47.526;8.538;2023-06-22T13:35:08;26.90;;;8.70;;
73023;SDS011;61199;47.526;8.538;2023-06-22T13:37:35;27.20;;;8.77;;
73023;SDS011;61199;47.526;8.538;2023-06-22T13:40:02;21.47;;;8.50;;
73023;SDS011;61199;47.526;8.538;2023-06-22T13:42:32;26.10;;;9.10;;
73023;SDS011;61199;47.526;8.538;2023-06-22T13:44:59;23.63;;;8.77;;
73023;SDS011;61199;47.526;8.538;2023-06-22T13:47:25;21.90;;;8.70;;
73023;SDS011;61199;47.526;8.538;2023-06-22T13:49:55;20.93;;;10.10;;
73023;SDS011;61199;47.526;8.538;2023-06-22T13:52:21;19.80;;;6.87;;
73023;SDS011;61199;47.526;8.538;2023-06-22T13:54:48;20.63;;;7.70;;
73023;SDS011;61199;47.526;8.538;2023-06-22T13:57:14;20.67;;;7.23;;
73023;SDS011;61199;47.526;8.538;2023-06-22T13:59:41;24.13;;;7.30;;
73023;SDS011;61199;47.526;8.538;2023-06-22T14:02:07;21.93;;;6.97;;
73023;SDS011;61199;47.526;8.538;2023-06-22T14:04:33;18.13;;;6.40;;
73023;SDS011;61199;47.526;8.538;2023-06-22T14:07:00;25.90;;;7.07;;
73023;SDS011;61199;47.526;8.538;2023-06-22T14:09:27;20.00;;;8.20;;
73023;SDS011;61199;47.526;8.538;2023-06-22T14:11:54;19.43;;;6.93;;
73023;SDS011;61199;47.526;8.538;2023-06-22T14:14:21;19.30;;;6.80;;
73023;SDS011;61199;47.526;8.538;2023-06-22T14:16:48;18.17;;;7.90;;
73023;SDS011;61199;47.526;8.538;2023-06-22T14:19:19;30.43;;;8.40;;
73023;SDS011;61199;47.526;8.538;2023-06-22T14:21:45;39.17;;;8.60;;
73023;SDS011;61199;47.526;8.538;2023-06-22T14:24:12;18.30;;;8.10;;
73023;SDS011;61199;47.526;8.538;2023-06-22T14:26:38;22.63;;;7.63;;
73023;SDS011;61199;47.526;8.538;2023-06-22T14:29:04;24.23;;;7.13;;
73023;SDS011;61199;47.526;8.538;2023-06-22T14:31:31;26.07;;;8.40;;
73023;SDS011;61199;47.526;8.538;2023-06-22T14:33:58;31.47;;;9.93;;
73023;SDS011;61199;47.526;8.538;2023-06-22T14:36:25;18.17;;;7.93;;
73023;SDS011;61199;47.526;8.538;2023-06-22T14:38:52;22.30;;;8.30;;
73023;SDS011;61199;47.526;8.538;2023-06-22T14:41:19;17.00;;;7.23;;
73023;SDS011;61199;47.526;8.538;2023-06-22T14:43:54;32.07;;;9.60;;